Time;durP1;ratioP1;P1;durP2;ratioP2;P2;SDS_P1;SDS_P2;PMS_P1;PMS_P2;Temp;Humidity;BMP_temperature;BMP_pressure;BME280_temperature;BME280_humidity;BME280_pressure;Samples;Min_cycle;Max_cycle;Signal;HPM_P1;HPM_P2
2023/06/18 00:02:19;;;;;;;27.90;20.85;;;16.10;99.90;;;;;;5012411;28;20426;-59
2023/06/18 00:04:44;;;;;;;26.75;20.70;;;16.10;99.90;;;;;;5010879;28;20042;-58
2023/06/18 00:07:10;;;;;;;27.83;19.95;;;16.00;99.90;;;;;;5008791;28;20103;-59
2023/06/18 00:09:36;;;;;;;27.60;21.45;;;16.00;99.90;;;;;;5010043;28;20045;-58
2023/06/18 00:12:02;;;;;;;29.48;20.08;;;16.00;99.90;;;;;;4973038;28;20045;-59
2023/06/18 00:14:27;;;;;;;27.92;21.45;;;16.00;99.90;;;;;;5009541;28;20124;-58
2023/06/18 00:16:53;;;;;;;27.55;20.42;;;16.00;99.90;;;;;;5008007;28;20717;-59
2023/06/18 00:19:19;;;;;;;23.08;18.48;;;16.00;99.90;;;;;;4996046;28;20033;-59
2023/06/18 00:21:46;;;;;;;20.17;16.17;;;16.00;99.90;;;;;;4992359;28;20429;-59
2023/06/18 00:24:11;;;;;;;19.05;15.90;;;15.90;99.90;;;;;;5009325;28;20038;-58
2023/06/18 00:26:37;;;;;;;23.05;17.80;;;15.90;99.90;;;;;;4994769;28;20045;-58
2023/06/18 00:29:03;;;;;;;26.15;19.13;;;15.80;99.90;;;;;;5010413;28;20073;-58
2023/06/18 00:31:32;;;;;;;27.92;20.88;;;15.80;99.90;;;;;;5008288;28;20117;-59
2023/06/18 00:34:04;;;;;;;31.58;21.10;;;15.80;99.90;;;;;;5010722;28;20128;-58
2023/06/18 00:36:31;;;;;;;28.38;21.35;;;15.80;99.90;;;;;;5009706;28;20361;-58
2023/06/18 00:38:57;;;;;;;26.88;20.98;;;15.80;99.90;;;;;;5008736;28;20121;-58
2023/06/18 00:41:27;;;;;;;29.92;20.65;;;15.80;99.90;;;;;;5010357;28;20050;-58
2023/06/18 00:43:53;;;;;;;30.55;23.05;;;15.80;99.90;;;;;;5008069;28;20417;-59
2023/06/18 00:46:20;;;;;;;30.58;21.73;;;15.70;99.90;;;;;;5011850;28;20045;-58
2023/06/18 00:48:47;;;;;;;29.90;22.88;;;15.70;99.90;;;;;;5012777;28;20048;-59
2023/06/18 00:51:16;;;;;;;31.77;24.25;;;15.70;99.90;;;;;;5013009;28;20033;-57
2023/06/18 00:53:42;;;;;;;29.23;21.95;;;15.70;99.90;;;;;;5012721;28;20053;-57
2023/06/18 00:56:09;;;;;;;31.77;22.50;;;15.70;99.90;;;;;;5014146;28;20100;-58
2023/06/18 00:58:36;;;;;;;29.35;21.85;;;15.70;99.90;;;;;;5013007;28;20040;-59
2023/06/18 01:01:02;;;;;;;35.60;25.42;;;15.70;99.90;;;;;;4984214;28;20041;-58
2023/06/18 01:03:28;;;;;;;28.73;21.20;;;15.70;99.90;;;;;;4996070;28;20494;-58
2023/06/18 01:06:01;;;;;;;28.58;21.90;;;15.60;99.90;;;;;;5005789;28;20052;-58
2023/06/18 01:08:28;;;;;;;29.08;21.45;;;15.60;99.90;;;;;;5006823;28;20100;-59
2023/06/18 01:11:01;;;;;;;33.20;23.50;;;15.60;99.90;;;;;;5007412;28;20106;-59
2023/06/18 01:13:33;;;;;;;30.52;23.05;;;15.60;99.90;;;;;;5008010;28;20128;-57
2023/06/18 01:16:05;;;;;;;31.65;22.90;;;15.60;99.90;;;;;;5000918;28;20370;-58
2023/06/18 01:18:45;;;;;;;32.17;22.20;;;15.60;99.90;;;;;;5006527;28;20495;-58
2023/06/18 01:21:19;;;;;;;29.70;21.70;;;15.60;99.90;;;;;;5007451;28;20049;-58
2023/06/18 01:24:19;;;;;;;27.50;19.98;;;15.60;99.90;;;;;;5006679;28;20046;-59
2023/06/18 01:26:46;;;;;;;30.27;21.95;;;15.60;99.90;;;;;;5004336;28;21575;-58
2023/06/18 01:29:12;;;;;;;26.25;20.27;;;15.50;99.90;;;;;;5006538;28;20506;-58
2023/06/18 01:31:42;;;;;;;27.33;19.60;;;15.50;99.90;;;;;;4986941;28;20053;-59
2023/06/18 01:34:08;;;;;;;29.90;22.77;;;15.50;99.90;;;;;;4977255;28;20046;-59
2023/06/18 01:36:47;;;;;;;28.27;20.40;;;15.50;99.90;;;;;;5010882;28;20041;-58
2023/06/18 01:39:24;;;;;;;27.00;20.38;;;15.50;99.90;;;;;;5008595;28;20037;-57
2023/06/18 01:41:54;;;;;;;26.98;20.10;;;15.50;99.90;;;;;;4987871;28;20045;-58
2023/06/18 01:44:24;;;;;;;30.67;22.05;;;15.50;99.90;;;;;;5010504;28;20050;-57
2023/06/18 01:46:53;;;;;;;27.30;20.58;;;15.40;99.90;;;;;;5009550;28;20653;-59
2023/06/18 01:49:20;;;;;;;27.50;20.23;;;15.40;99.90;;;;;;5008981;28;20049;-57
2023/06/18 01:51:50;;;;;;;24.40;18.98;;;15.40;99.90;;;;;;5012353;28;20096;-58
2023/06/18 01:54:17;;;;;;;25.10;19.27;;;15.40;99.90;;;;;;5009865;28;20053;-59
2023/06/18 01:56:44;;;;;;;33.55;23.85;;;15.40;99.90;;;;;;5017182;28;20495;-58
2023/06/18 01:59:11;;;;;;;29.33;21.20;;;15.40;99.90;;;;;;5008710;28;20754;-58
2023/06/18 02:01:40;;;;;;;25.33;18.67;;;15.40;99.90;;;;;;5009030;28;20045;-57
2023/06/18 02:04:06;;;;;;;27.25;20.10;;;15.30;99.90;;;;;;5012855;28;20478;-58
2023/06/18 02:06:32;;;;;;;23.98;18.10;;;15.30;99.90;;;;;;5013346;28;20041;-57
2023/06/18 02:08:58;;;;;;;21.40;17.98;;;15.30;99.90;;;;;;5017496;28;20042;-57
2023/06/18 02:11:23;;;;;;;25.20;18.92;;;15.20;99.90;;;;;;5016586;28;20045;-59
2023/06/18 02:13:49;;;;;;;22.95;17.80;;;15.20;99.90;;;;;;5013497;28;20557;-59
2023/06/18 02:16:15;;;;;;;20.42;15.63;;;15.10;99.90;;;;;;4996635;28;20041;-57
2023/06/18 02:18:41;;;;;;;18.17;14.73;;;15.00;99.90;;;;;;5016679;28;20041;-58
2023/06/18 02:21:07;;;;;;;15.90;13.45;;;15.00;99.90;;;;;;5002523;28;20390;-58
2023/06/18 02:23:33;;;;;;;18.65;14.82;;;14.90;99.90;;;;;;5016456;28;20087;-58
2023/06/18 02:26:00;;;;;;;15.27;12.90;;;14.90;99.90;;;;;;4997158;28;20075;-58
2023/06/18 02:28:26;;;;;;;15.63;13.02;;;14.80;99.90;;;;;;4997316;28;20041;-57
2023/06/18 02:30:52;;;;;;;16.30;13.63;;;14.90;99.90;;;;;;5017428;28;20038;-59
2023/06/18 02:33:18;;;;;;;17.00;14.80;;;14.80;99.90;;;;;;5006707;28;20038;-58
2023/06/18 02:35:44;;;;;;;17.30;14.93;;;14.70;99.90;;;;;;5013151;28;20052;-59
2023/06/18 02:38:10;;;;;;;19.83;15.88;;;14.60;99.90;;;;;;4992902;28;20038;-59
2023/06/18 02:40:36;;;;;;;25.92;17.35;;;14.40;99.90;;;;;;5007770;28;20482;-59
2023/06/18 02:43:05;;;;;;;17.60;15.50;;;14.30;99.90;;;;;;4991090;28;20286;-58
2023/06/18 02:45:31;;;;;;;24.45;18.00;;;14.10;99.90;;;;;;4994494;28;20054;-57
2023/06/18 02:47:57;;;;;;;31.15;18.73;;;14.10;99.90;;;;;;4976581;28;20087;-59
2023/06/18 02:50:23;;;;;;;20.98;18.17;;;13.90;99.90;;;;;;4993346;28;20401;-59
2023/06/18 02:52:49;;;;;;;22.30;17.80;;;13.90;99.90;;;;;;4991182;28;20041;-58
2023/06/18 02:55:16;;;;;;;39.50;20.73;;;13.80;99.90;;;;;;5006050;28;20045;-59
2023/06/18 02:57:42;;;;;;;27.17;20.20;;;13.80;99.90;;;;;;5008384;28;20494;-58
2023/06/18 03:00:13;;;;;;;28.55;21.63;;;13.80;99.90;;;;;;5010526;28;20064;-59
2023/06/18 03:02:41;;;;;;;59.72;24.98;;;13.90;99.90;;;;;;5008109;28;20030;-58
2023/06/18 03:05:07;;;;;;;44.53;24.02;;;13.90;99.90;;;;;;5004859;28;20041;-59
2023/06/18 03:07:33;;;;;;;46.90;22.95;;;14.00;99.90;;;;;;5004140;28;20061;-58
2023/06/18 03:09:59;;;;;;;50.00;23.17;;;14.00;99.90;;;;;;4973146;28;20124;-58
2023/06/18 03:12:25;;;;;;;59.50;23.27;;;14.10;99.90;;;;;;4993999;28;20037;-59
2023/06/18 03:14:51;;;;;;;41.15;22.23;;;14.10;99.90;;;;;;5012900;28;20557;-58
2023/06/18 03:17:17;;;;;;;28.50;21.98;;;14.10;99.90;;;;;;5012544;28;20095;-57
2023/06/18 03:19:43;;;;;;;46.58;24.30;;;14.10;99.90;;;;;;5009849;28;20460;-58
2023/06/18 03:22:08;;;;;;;51.92;23.67;;;14.10;99.90;;;;;;4993941;28;20046;-59
2023/06/18 03:24:34;;;;;;;35.25;23.38;;;14.10;99.90;;;;;;5011960;28;20049;-58
2023/06/18 03:27:00;;;;;;;57.75;25.60;;;14.20;99.90;;;;;;5012725;28;20053;-58
2023/06/18 03:29:28;;;;;;;31.85;22.90;;;14.20;99.90;;;;;;5011084;28;20403;-59
2023/06/18 03:31:55;;;;;;;54.30;26.77;;;14.20;99.90;;;;;;4961748;28;20168;-58
2023/06/18 03:34:22;;;;;;;72.55;28.00;;;14.30;99.90;;;;;;4971413;28;20080;-58
2023/06/18 03:36:48;;;;;;;37.55;25.23;;;14.30;99.90;;;;;;5002166;28;20493;-57
2023/06/18 03:39:15;;;;;;;69.13;29.23;;;14.30;99.90;;;;;;5004745;28;20052;-57
2023/06/18 03:41:42;;;;;;;41.00;26.02;;;14.40;99.90;;;;;;4998351;28;20130;-58
2023/06/18 03:44:08;;;;;;;75.65;29.27;;;14.40;99.90;;;;;;4999468;28;20038;-59
2023/06/18 03:46:33;;;;;;;38.40;25.08;;;14.50;99.90;;;;;;5000279;28;20231;-57
2023/06/18 03:48:59;;;;;;;42.55;26.58;;;14.50;99.90;;;;;;4977811;28;20081;-57
2023/06/18 03:51:26;;;;;;;52.83;28.00;;;14.50;99.90;;;;;;4990015;28;20132;-58
2023/06/18 03:53:51;;;;;;;38.63;25.38;;;14.60;99.90;;;;;;4982164;28;20037;-59
2023/06/18 03:56:18;;;;;;;39.83;25.05;;;14.60;99.90;;;;;;4991204;28;20513;-58
2023/06/18 03:58:44;;;;;;;36.88;24.67;;;14.70;99.90;;;;;;4977267;28;20041;-59
2023/06/18 04:01:10;;;;;;;41.53;25.35;;;14.70;99.90;;;;;;4997964;28;20525;-57
2023/06/18 04:03:37;;;;;;;46.47;26.15;;;14.80;99.90;;;;;;4997484;28;20319;-59
2023/06/18 04:06:03;;;;;;;43.22;26.67;;;14.80;99.90;;;;;;4984418;28;20623;-59
2023/06/18 04:08:30;;;;;;;40.85;25.83;;;14.80;99.90;;;;;;4982345;28;20045;-57
2023/06/18 04:10:56;;;;;;;40.28;25.95;;;14.80;99.90;;;;;;4998094;28;20501;-59
2023/06/18 04:13:22;;;;;;;39.42;25.25;;;14.90;99.90;;;;;;4994576;28;20487;-59
2023/06/18 04:15:49;;;;;;;54.78;25.20;;;14.90;99.90;;;;;;4981707;28;20049;-58
2023/06/18 04:18:15;;;;;;;62.03;26.90;;;14.90;99.90;;;;;;4997602;28;20084;-58
2023/06/18 04:20:41;;;;;;;55.20;26.55;;;14.90;99.90;;;;;;4968860;28;20043;-59
2023/06/18 04:23:08;;;;;;;37.13;24.13;;;15.00;99.90;;;;;;4994042;28;20099;-57
2023/06/18 04:25:34;;;;;;;40.33;24.23;;;15.00;99.90;;;;;;4980854;28;21152;-59
2023/06/18 04:28:00;;;;;;;40.20;24.33;;;15.10;99.90;;;;;;4982164;28;21099;-57
2023/06/18 04:30:27;;;;;;;56.83;27.45;;;15.10;99.90;;;;;;4998947;28;20482;-59
2023/06/18 04:32:52;;;;;;;39.78;24.83;;;15.20;99.90;;;;;;4977662;28;20045;-59
2023/06/18 04:35:19;;;;;;;39.35;24.98;;;15.20;99.90;;;;;;4949486;28;20052;-58
2023/06/18 04:37:45;;;;;;;40.92;24.80;;;15.30;99.90;;;;;;4979833;28;20061;-59
2023/06/18 04:40:11;;;;;;;41.45;24.42;;;15.30;99.90;;;;;;4998201;28;20699;-58
2023/06/18 04:42:37;;;;;;;39.05;23.98;;;15.30;99.90;;;;;;4967982;28;20067;-59
2023/06/18 04:45:04;;;;;;;36.85;22.50;;;15.40;99.90;;;;;;4986897;28;20059;-59
2023/06/18 04:47:30;;;;;;;40.95;24.33;;;15.50;99.90;;;;;;4998034;28;20115;-58
2023/06/18 04:49:56;;;;;;;34.95;22.40;;;15.60;99.90;;;;;;4988264;28;20354;-59
2023/06/18 04:52:21;;;;;;;37.53;23.13;;;15.60;99.90;;;;;;4999746;28;20046;-58
2023/06/18 04:54:47;;;;;;;34.13;22.20;;;15.70;99.90;;;;;;5001803;28;20047;-59
2023/06/18 04:57:13;;;;;;;39.30;24.23;;;15.70;99.90;;;;;;4986902;28;20132;-58
2023/06/18 04:59:41;;;;;;;34.47;22.30;;;15.80;99.90;;;;;;4991342;28;20800;-59
2023/06/18 05:02:07;;;;;;;40.85;24.80;;;15.80;99.90;;;;;;5005109;28;20171;-59
2023/06/18 05:04:32;;;;;;;38.13;23.67;;;15.90;99.90;;;;;;5000827;28;20472;-59
2023/06/18 05:06:58;;;;;;;38.60;23.85;;;16.00;99.90;;;;;;4998626;28;20506;-59
2023/06/18 05:09:27;;;;;;;39.05;24.02;;;16.00;99.90;;;;;;5003895;28;20041;-59
2023/06/18 05:11:53;;;;;;;35.35;22.42;;;16.10;99.90;;;;;;5004634;28;20087;-58
2023/06/18 05:14:18;;;;;;;32.92;21.42;;;16.10;99.90;;;;;;5004525;28;20287;-59
2023/06/18 05:16:45;;;;;;;34.50;22.92;;;16.10;99.90;;;;;;4988441;28;20037;-59
2023/06/18 05:19:10;;;;;;;37.40;23.10;;;16.20;99.90;;;;;;5005189;28;20046;-57
2023/06/18 05:21:36;;;;;;;39.38;24.23;;;16.20;99.90;;;;;;4972238;28;20388;-59
2023/06/18 05:24:02;;;;;;;34.95;21.98;;;16.30;99.90;;;;;;4990192;28;20045;-59
2023/06/18 05:26:30;;;;;;;32.20;21.52;;;16.30;99.90;;;;;;4987323;28;20591;-59
2023/06/18 05:28:56;;;;;;;31.42;21.50;;;16.40;99.90;;;;;;5003163;28;20041;-59
2023/06/18 05:31:21;;;;;;;31.23;20.80;;;16.40;99.90;;;;;;5003354;28;20104;-59
2023/06/18 05:33:47;;;;;;;30.48;20.20;;;16.50;99.90;;;;;;5003556;28;20083;-59
2023/06/18 05:36:13;;;;;;;30.88;20.98;;;16.50;99.90;;;;;;5007044;28;20041;-59
2023/06/18 05:38:39;;;;;;;30.95;21.23;;;16.60;99.90;;;;;;4978585;28;20060;-59
2023/06/18 05:41:05;;;;;;;30.10;20.08;;;16.60;99.90;;;;;;5004094;28;20042;-58
2023/06/18 05:43:31;;;;;;;29.25;20.73;;;16.70;99.90;;;;;;4985071;28;20097;-59
2023/06/18 05:45:57;;;;;;;28.83;20.08;;;16.70;99.90;;;;;;4993953;28;20045;-58
2023/06/18 05:48:23;;;;;;;27.60;19.60;;;16.80;99.90;;;;;;4997150;28;20049;-58
2023/06/18 05:50:49;;;;;;;27.98;19.27;;;16.90;99.90;;;;;;4986348;28;20041;-58
2023/06/18 05:53:15;;;;;;;28.88;19.42;;;17.00;99.90;;;;;;5000423;28;20045;-59
2023/06/18 05:55:41;;;;;;;26.95;18.60;;;17.00;99.90;;;;;;5001089;28;20056;-59
2023/06/18 05:58:07;;;;;;;28.38;18.35;;;17.10;99.90;;;;;;5001045;28;20699;-59
2023/06/18 06:00:33;;;;;;;23.25;16.98;;;17.20;99.90;;;;;;4992599;28;20037;-59
2023/06/18 06:02:59;;;;;;;22.42;17.33;;;17.30;99.90;;;;;;5001338;28;20049;-59
2023/06/18 06:05:25;;;;;;;26.98;18.17;;;17.30;99.90;;;;;;4982433;28;20476;-59
2023/06/18 06:07:50;;;;;;;23.50;18.10;;;17.40;99.90;;;;;;5001174;28;20044;-58
2023/06/18 06:10:18;;;;;;;24.05;18.15;;;17.50;99.90;;;;;;5004140;28;20546;-57
2023/06/18 06:12:45;;;;;;;25.80;19.35;;;17.60;99.90;;;;;;4999975;28;20049;-59
2023/06/18 06:15:11;;;;;;;27.35;20.08;;;17.70;99.90;;;;;;5001287;28;20048;-59
2023/06/18 06:17:37;;;;;;;25.40;18.73;;;17.80;99.90;;;;;;4990864;28;20049;-59
2023/06/18 06:20:04;;;;;;;24.05;18.25;;;17.90;99.90;;;;;;5010270;28;20041;-59
2023/06/18 06:22:29;;;;;;;21.98;16.80;;;18.00;99.90;;;;;;4983488;28;20041;-58
2023/06/18 06:24:55;;;;;;;22.35;16.80;;;18.00;99.90;;;;;;4981086;28;20053;-59
2023/06/18 06:27:21;;;;;;;21.73;16.75;;;18.10;99.90;;;;;;4999515;28;20059;-58
2023/06/18 06:29:47;;;;;;;18.42;14.68;;;18.20;99.90;;;;;;4979703;28;20057;-58
2023/06/18 06:32:13;;;;;;;20.67;13.50;;;18.20;99.90;;;;;;4998933;28;21004;-57
2023/06/18 06:34:39;;;;;;;19.58;13.70;;;18.30;99.90;;;;;;4999692;28;20038;-59
2023/06/18 06:37:05;;;;;;;20.75;13.35;;;18.40;99.90;;;;;;4982865;28;20156;-58
2023/06/18 06:39:30;;;;;;;19.30;13.50;;;18.50;99.90;;;;;;4983245;28;20037;-59
2023/06/18 06:41:56;;;;;;;16.90;12.70;;;18.60;99.90;;;;;;4983066;28;20758;-59
2023/06/18 06:44:22;;;;;;;16.55;12.93;;;18.80;99.90;;;;;;5001742;28;20053;-59
2023/06/18 06:46:48;;;;;;;16.30;12.82;;;18.90;99.90;;;;;;4984446;28;20587;-59
2023/06/18 06:49:13;;;;;;;19.77;12.55;;;19.00;99.90;;;;;;5000090;28;20535;-59
2023/06/18 06:51:39;;;;;;;17.60;12.55;;;19.10;99.90;;;;;;5000814;28;20049;-58
2023/06/18 06:54:05;;;;;;;16.40;12.07;;;19.20;99.90;;;;;;4974370;28;20034;-59
2023/06/18 06:56:32;;;;;;;17.55;12.40;;;19.30;99.90;;;;;;4999495;28;20644;-59
2023/06/18 06:58:58;;;;;;;14.13;11.82;;;19.50;99.90;;;;;;4985727;28;20056;-58
2023/06/18 07:01:24;;;;;;;15.88;11.65;;;19.50;99.90;;;;;;4978515;28;20048;-58
2023/06/18 07:03:50;;;;;;;15.70;11.43;;;19.70;99.90;;;;;;4992408;28;20038;-58
2023/06/18 07:06:16;;;;;;;20.17;11.32;;;19.90;99.90;;;;;;4996369;28;20083;-59
2023/06/18 07:08:42;;;;;;;17.13;11.70;;;19.90;99.90;;;;;;4974961;28;20465;-59
2023/06/18 07:11:08;;;;;;;15.38;11.05;;;20.00;99.90;;;;;;4998814;28;20045;-59
2023/06/18 07:13:34;;;;;;;13.73;11.15;;;20.10;99.90;;;;;;5000478;28;20386;-58
2023/06/18 07:16:00;;;;;;;16.38;10.75;;;20.20;99.90;;;;;;5004029;28;20147;-59
2023/06/18 07:18:26;;;;;;;19.40;11.35;;;20.30;99.90;;;;;;5001480;28;20085;-57
2023/06/18 07:20:52;;;;;;;14.07;10.82;;;20.40;99.90;;;;;;4996543;28;20157;-59
2023/06/18 07:23:18;;;;;;;14.95;10.93;;;20.60;99.90;;;;;;4996414;28;20099;-59
2023/06/18 07:25:43;;;;;;;14.75;10.68;;;20.70;99.90;;;;;;5000719;28;20513;-59
2023/06/18 07:28:09;;;;;;;13.55;10.50;;;20.70;99.90;;;;;;5002447;28;20053;-57
2023/06/18 07:30:35;;;;;;;14.15;9.98;;;20.70;99.90;;;;;;4996374;28;20053;-59
2023/06/18 07:33:00;;;;;;;14.93;10.23;;;20.80;99.90;;;;;;4980348;28;20053;-58
2023/06/18 07:35:26;;;;;;;12.63;9.77;;;20.80;99.90;;;;;;4993973;28;20077;-59
2023/06/18 07:37:52;;;;;;;14.70;10.80;;;21.00;99.90;;;;;;4998591;28;20050;-59
2023/06/18 07:40:18;;;;;;;16.27;10.10;;;21.20;99.90;;;;;;4983727;28;20038;-58
2023/06/18 07:42:44;;;;;;;14.40;10.88;;;21.30;99.90;;;;;;4992057;28;20539;-59
2023/06/18 07:45:10;;;;;;;14.00;10.60;;;21.50;99.90;;;;;;5009734;28;20029;-60
2023/06/18 07:47:35;;;;;;;11.98;10.05;;;21.50;99.90;;;;;;5006383;28;20765;-59
2023/06/18 07:50:02;;;;;;;13.68;10.38;;;21.60;99.90;;;;;;5005262;28;20042;-59
2023/06/18 07:52:28;;;;;;;14.13;10.45;;;21.80;99.90;;;;;;5008378;28;20038;-59
2023/06/18 07:54:53;;;;;;;12.90;10.25;;;21.90;99.90;;;;;;4986327;28;20057;-59
2023/06/18 07:57:19;;;;;;;14.55;10.00;;;22.00;99.90;;;;;;5003660;28;20533;-58
2023/06/18 07:59:47;;;;;;;12.65;9.50;;;22.20;99.90;;;;;;4991945;28;20057;-59
2023/06/18 08:02:13;;;;;;;12.02;9.68;;;22.30;99.90;;;;;;4990999;28;20041;-59
2023/06/18 08:04:38;;;;;;;11.88;9.88;;;22.30;99.90;;;;;;5005528;28;20044;-57
2023/06/18 08:07:05;;;;;;;12.77;10.10;;;22.40;99.90;;;;;;4993683;28;20052;-57
2023/06/18 08:09:31;;;;;;;15.65;10.32;;;22.50;99.90;;;;;;4978239;28;20060;-58
2023/06/18 08:11:57;;;;;;;12.20;9.32;;;22.50;99.90;;;;;;5015309;28;20041;-59
2023/06/18 08:14:22;;;;;;;13.15;9.50;;;22.60;99.90;;;;;;5011758;28;20432;-59
2023/06/18 08:16:49;;;;;;;13.63;9.90;;;22.80;99.90;;;;;;5015524;28;20041;-58
2023/06/18 08:19:15;;;;;;;11.80;9.52;;;22.90;99.90;;;;;;5019276;28;20064;-58
2023/06/18 08:21:41;;;;;;;11.95;9.30;;;23.10;99.90;;;;;;5018314;28;20045;-59
2023/06/18 08:24:07;;;;;;;14.75;9.93;;;23.30;99.90;;;;;;5001410;28;20490;-58
2023/06/18 08:26:33;;;;;;;16.00;10.30;;;23.50;99.90;;;;;;4995551;28;20104;-57
2023/06/18 08:28:59;;;;;;;12.48;10.38;;;23.70;99.90;;;;;;5007780;28;20141;-59
2023/06/18 08:31:26;;;;;;;12.73;10.02;;;23.80;99.90;;;;;;5014475;28;20501;-59
2023/06/18 08:33:51;;;;;;;14.40;10.07;;;24.00;99.90;;;;;;5009172;28;20041;-59
2023/06/18 08:36:23;;;;;;;13.07;9.18;;;24.10;99.90;;;;;;4990028;28;20978;-59
2023/06/18 08:38:49;;;;;;;11.30;9.60;;;24.40;99.90;;;;;;5010462;28;20050;-59
2023/06/18 08:41:15;;;;;;;13.93;9.05;;;24.60;99.90;;;;;;5012087;28;20041;-59
2023/06/18 08:43:41;;;;;;;13.65;9.43;;;24.80;99.80;;;;;;5009769;28;20053;-58
2023/06/18 08:46:12;;;;;;;13.10;9.82;;;25.00;99.70;;;;;;5010827;28;20045;-58
2023/06/18 08:48:58;;;;;;;11.95;9.98;;;25.00;99.40;;;;;;4985817;28;20140;-59
2023/06/18 08:51:24;;;;;;;12.82;8.77;;;25.10;98.80;;;;;;5010168;28;20037;-58
2023/06/18 08:54:13;;;;;;;11.45;8.30;;;25.20;98.70;;;;;;5009448;28;20195;-58
2023/06/18 08:56:55;;;;;;;12.10;9.32;;;25.30;98.10;;;;;;5008282;28;20817;-60
2023/06/18 08:59:21;;;;;;;11.38;9.50;;;25.50;97.50;;;;;;5014720;28;20046;-59
2023/06/18 09:01:47;;;;;;;13.48;8.60;;;25.40;97.10;;;;;;5000520;28;20395;-59
2023/06/18 09:04:15;;;;;;;11.95;8.45;;;25.40;97.00;;;;;;5014869;28;20056;-58
2023/06/18 09:06:42;;;;;;;11.00;8.57;;;25.40;97.00;;;;;;5002579;28;20049;-58
2023/06/18 09:09:08;;;;;;;13.77;9.10;;;25.40;96.80;;;;;;5014268;28;20609;-59
2023/06/18 09:11:34;;;;;;;10.48;8.05;;;25.50;96.50;;;;;;5011931;28;20084;-59
2023/06/18 09:14:00;;;;;;;10.77;8.20;;;25.60;96.70;;;;;;4994300;28;20050;-59
2023/06/18 09:16:26;;;;;;;12.27;9.23;;;25.90;96.40;;;;;;5009638;28;20104;-59
2023/06/18 09:18:52;;;;;;;13.23;8.30;;;26.20;95.80;;;;;;5011775;28;20041;-59
2023/06/18 09:21:40;;;;;;;11.75;7.32;;;26.30;94.90;;;;;;5012742;28;20147;-59
2023/06/18 09:24:17;;;;;;;11.45;6.55;;;26.50;93.80;;;;;;5008867;28;20060;-57
2023/06/18 09:26:43;;;;;;;8.20;6.25;;;26.70;92.70;;;;;;4992259;28;20144;-59
2023/06/18 09:29:10;;;;;;;7.53;6.20;;;26.90;92.30;;;;;;5011870;28;20045;-59
2023/06/18 09:31:41;;;;;;;10.43;7.00;;;27.10;91.40;;;;;;5007457;28;20037;-59
2023/06/18 09:34:19;;;;;;;11.05;6.95;;;27.30;90.40;;;;;;5008318;28;20041;-58
2023/06/18 09:36:49;;;;;;;9.30;6.63;;;27.50;89.60;;;;;;4990144;28;20052;-59
2023/06/18 09:39:22;;;;;;;7.88;6.30;;;27.70;85.50;;;;;;5011538;28;20042;-59
2023/06/18 09:41:51;;;;;;;8.55;5.70;;;27.90;85.00;;;;;;5012354;28;20111;-59
2023/06/18 09:44:18;;;;;;;8.90;6.10;;;28.10;84.00;;;;;;5002827;28;20108;-59
2023/06/18 09:46:57;;;;;;;6.38;5.25;;;28.30;81.30;;;;;;5012861;28;20502;-59
2023/06/18 09:49:24;;;;;;;7.25;5.85;;;28.40;79.40;;;;;;5013379;28;20085;-59
2023/06/18 09:51:51;;;;;;;6.85;5.85;;;28.50;78.00;;;;;;5006688;28;20046;-59
2023/06/18 09:54:17;;;;;;;9.30;6.25;;;28.60;76.80;;;;;;5013529;28;20131;-58
2023/06/18 09:56:57;;;;;;;6.88;5.60;;;28.60;75.10;;;;;;5010377;28;20054;-59
2023/06/18 09:59:24;;;;;;;5.82;4.85;;;28.60;76.00;;;;;;4996905;28;20041;-59
2023/06/18 10:01:50;;;;;;;6.93;4.53;;;28.70;74.10;;;;;;5012078;28;20042;-60
2023/06/18 10:04:19;;;;;;;10.57;4.88;;;28.80;71.70;;;;;;5008887;28;20504;-60
2023/06/18 10:06:54;;;;;;;7.32;4.40;;;28.90;69.90;;;;;;4985485;28;20480;-60
2023/06/18 10:09:20;;;;;;;7.50;4.15;;;29.10;67.80;;;;;;5006814;28;20056;-59
2023/06/18 10:11:50;;;;;;;7.00;4.53;;;29.30;65.30;;;;;;5009604;28;20044;-59
2023/06/18 10:14:21;;;;;;;5.30;4.70;;;29.40;62.90;;;;;;5000797;28;20482;-59
2023/06/18 10:16:50;;;;;;;7.57;4.80;;;29.50;64.00;;;;;;4991476;28;20394;-59
2023/06/18 10:19:33;;;;;;;8.23;6.00;;;29.70;63.90;;;;;;5009921;28;20050;-59
2023/06/18 10:22:01;;;;;;;7.22;5.07;;;29.90;63.80;;;;;;5011505;28;20045;-59
2023/06/18 10:24:45;;;;;;;8.65;4.40;;;30.10;65.40;;;;;;4997478;28;20069;-57
2023/06/18 10:27:11;;;;;;;6.93;4.60;;;30.20;61.70;;;;;;4997135;28;20045;-59
2023/06/18 10:29:38;;;;;;;7.65;4.75;;;30.40;59.60;;;;;;4995790;28;22369;-58
2023/06/18 10:32:04;;;;;;;7.63;4.78;;;30.40;58.80;;;;;;4977680;28;20513;-59
2023/06/18 10:34:34;;;;;;;6.68;5.53;;;30.40;58.50;;;;;;4997016;28;20048;-58
2023/06/18 10:37:00;;;;;;;6.90;5.30;;;30.50;58.40;;;;;;4997318;28;20073;-59
2023/06/18 10:39:27;;;;;;;7.57;5.70;;;30.70;59.70;;;;;;4997125;28;20046;-59
2023/06/18 10:41:54;;;;;;;8.93;5.88;;;30.80;60.10;;;;;;4993028;28;20083;-59
2023/06/18 10:44:48;;;;;;;7.57;6.05;;;30.90;60.70;;;;;;4994094;28;20747;-59
2023/06/18 10:47:25;;;;;;;7.80;5.90;;;31.00;60.90;;;;;;4990747;28;20860;-59
2023/06/18 10:50:03;;;;;;;6.63;5.68;;;31.00;60.00;;;;;;4987676;28;20041;-58
2023/06/18 10:52:30;;;;;;;6.22;5.60;;;31.00;61.00;;;;;;4990652;28;20562;-59
2023/06/18 10:55:12;;;;;;;7.45;5.50;;;31.10;60.20;;;;;;4984097;28;20076;-59
2023/06/18 10:57:41;;;;;;;7.05;5.32;;;31.30;60.10;;;;;;4989062;28;20711;-59
2023/06/18 11:00:26;;;;;;;7.63;6.00;;;31.40;59.10;;;;;;4981840;28;20071;-59
2023/06/18 11:03:03;;;;;;;7.45;5.78;;;31.40;59.30;;;;;;4968178;28;20042;-60
2023/06/18 11:05:32;;;;;;;7.82;5.90;;;31.40;58.80;;;;;;4973981;28;20467;-59
2023/06/18 11:08:00;;;;;;;7.10;5.80;;;31.40;58.80;;;;;;4994936;28;20073;-59
2023/06/18 11:10:36;;;;;;;7.72;5.80;;;31.30;57.60;;;;;;4976617;28;20514;-58
2023/06/18 11:13:06;;;;;;;7.10;5.72;;;31.30;57.90;;;;;;4995514;28;20678;-59
2023/06/18 11:15:33;;;;;;;8.20;6.28;;;31.30;57.80;;;;;;4991717;28;20509;-59
2023/06/18 11:18:01;;;;;;;6.05;5.45;;;31.30;58.10;;;;;;4949917;28;20041;-59
2023/06/18 11:20:34;;;;;;;7.90;6.22;;;31.30;58.70;;;;;;4991439;28;22266;-59
2023/06/18 11:23:01;;;;;;;15.32;5.75;;;31.30;56.90;;;;;;4973870;28;20636;-59
2023/06/18 11:25:28;;;;;;;7.03;5.50;;;31.30;57.30;;;;;;4993790;28;20057;-59
2023/06/18 11:27:55;;;;;;;6.32;5.38;;;31.30;57.10;;;;;;5008579;28;20037;-59
2023/06/18 11:30:21;;;;;;;7.75;6.05;;;31.10;56.90;;;;;;5005959;28;20038;-60
2023/06/18 11:32:47;;;;;;;10.13;5.85;;;30.90;56.80;;;;;;4995001;28;20041;-59
2023/06/18 11:35:14;;;;;;;7.13;5.45;;;30.80;56.70;;;;;;5005848;28;20052;-59
2023/06/18 11:37:42;;;;;;;7.05;5.85;;;30.70;57.20;;;;;;5003495;28;20494;-59
2023/06/18 11:40:08;;;;;;;7.15;5.70;;;30.70;57.20;;;;;;5006010;28;20087;-59
2023/06/18 11:42:36;;;;;;;7.22;5.50;;;30.60;56.80;;;;;;5008069;28;20111;-58
2023/06/18 11:45:04;;;;;;;6.47;5.82;;;30.60;56.80;;;;;;5010554;28;20054;-58
2023/06/18 11:47:32;;;;;;;14.43;6.05;;;30.60;56.80;;;;;;5009771;28;20045;-58
2023/06/18 11:49:58;;;;;;;9.68;5.90;;;30.60;56.60;;;;;;4993398;28;20063;-58
2023/06/18 11:52:26;;;;;;;10.38;6.07;;;30.70;57.30;;;;;;5017001;28;20061;-59
2023/06/18 11:54:56;;;;;;;6.15;5.53;;;30.80;57.20;;;;;;5005805;28;20057;-58
2023/06/18 11:57:23;;;;;;;8.48;5.90;;;30.90;57.20;;;;;;5010179;28;20077;-59
2023/06/18 11:59:53;;;;;;;7.40;5.35;;;31.10;57.20;;;;;;5011590;28;20045;-58
2023/06/18 12:02:24;;;;;;;6.47;5.78;;;31.20;57.30;;;;;;5008199;28;20092;-59
2023/06/18 12:04:50;;;;;;;12.20;6.22;;;31.40;57.90;;;;;;5003455;28;20116;-60
2023/06/18 12:07:18;;;;;;;10.80;5.72;;;31.50;57.30;;;;;;5007197;28;20057;-58
2023/06/18 12:09:45;;;;;;;6.63;5.35;;;31.70;57.00;;;;;;4990752;28;20201;-59
2023/06/18 12:12:35;;;;;;;8.27;5.97;;;31.80;55.90;;;;;;4993830;28;20232;-59
2023/06/18 12:15:21;;;;;;;8.25;5.60;;;31.80;55.60;;;;;;5006937;28;20049;-59
2023/06/18 12:17:50;;;;;;;7.32;5.72;;;31.80;56.20;;;;;;4994318;28;21178;-58
2023/06/18 12:20:19;;;;;;;6.45;5.78;;;31.80;56.20;;;;;;5005860;28;20128;-58
2023/06/18 12:22:45;;;;;;;6.78;5.57;;;31.90;56.00;;;;;;5006465;28;20603;-58
2023/06/18 12:25:11;;;;;;;6.55;5.40;;;32.00;54.60;;;;;;4998454;28;20054;-58
2023/06/18 12:27:39;;;;;;;6.07;5.47;;;31.80;54.50;;;;;;5001468;28;21121;-58
2023/06/18 12:30:06;;;;;;;6.32;5.70;;;31.90;54.30;;;;;;5004460;28;20450;-60
2023/06/18 12:32:36;;;;;;;6.78;5.47;;;32.00;53.80;;;;;;5004449;28;20037;-60
2023/06/18 12:35:24;;;;;;;11.85;5.60;;;32.10;53.50;;;;;;5002339;28;20042;-60
2023/06/18 12:37:50;;;;;;;6.95;5.38;;;32.40;53.90;;;;;;5007777;28;20402;-59